This is the latest recevied weather packets stored in our database for station/object KC0CAU. If no packets are shown the sender has not sent any weather packets the latest 10 day(s).
| Time | Temp. | Humidity | Pressure | Rain* | Wind** | Luminosity | Snow |
|---|---|---|---|---|---|---|---|
| 1777860056 | 20.56° C | 34% | 999.9 hPa | 0 mm | - | - | - |
| 1777859165 | 21.11° C | 33% | 999.8 hPa | 0 mm | - | - | - |
| 1777858260 | 21.67° C | 32% | 1000 hPa | 0 mm | - | - | - |
| 1777857352 | 22.22° C | 31% | 1000.2 hPa | 0 mm | - | - | - |
| 1777856454 | 22.22° C | 30% | 1000.6 hPa | 0 mm | - | - | - |
| 1777855552 | 22.78° C | 28% | 1000.8 hPa | 0 mm | - | - | - |
| 1777854655 | 22.78° C | 28% | 1001.3 hPa | 0 mm | - | - | - |
| 1777853760 | 22.78° C | 28% | 1001.6 hPa | 0 mm | - | - | - |
| 1777852840 | 22.78° C | 28% | 1001.9 hPa | 0 mm | - | - | - |
| 1777851938 | 22.78° C | 27% | 1002.3 hPa | 0 mm | - | - | - |
| 1777851038 | 22.78° C | 28% | 1002.8 hPa | 0 mm | - | - | - |
| 1777850134 | 22.78° C | 27% | 1002.9 hPa | 0 mm | - | - | - |
| 1777849235 | 23.89° C | 27% | 1003 hPa | 0 mm | - | - | - |
| 1777848332 | 23.89° C | 25% | 1003.2 hPa | 0 mm | - | - | - |
| 1777847430 | 23.89° C | 25% | 1003.5 hPa | 0 mm | - | - | - |
| 1777846529 | 23.89° C | 26% | 1003.6 hPa | 0 mm | - | - | - |
| 1777845627 | 23.89° C | 27% | 1003.8 hPa | 0 mm | - | - | - |
| 1777844724 | 23.89° C | 26% | 1004.1 hPa | 0 mm | - | - | - |
| 1777843822 | 23.89° C | 29% | 1004.4 hPa | 0 mm | - | - | - |
| 1777842920 | 23.89° C | 27% | 1004.9 hPa | 0 mm | - | - | - |
| 1777842017 | 23.89° C | 27% | 1005.4 hPa | 0 mm | - | - | - |
| 1777841120 | 23.33° C | 28% | 1005.8 hPa | 0 mm | - | - | - |
| 1777840214 | 23.33° C | 26% | 1006.2 hPa | 0 mm | - | - | - |
| 1777839308 | 22.78° C | 29% | 1006.7 hPa | 0 mm | - | - | - |
| 1777838408 | 22.78° C | 27% | 1007.2 hPa | 0 mm | - | - | - |
* Rain latest hour (hover to see other rain measurements)
** Current wind speed in m/s (hover to see current wind gust speed)